Come By Chance, Canada
Current Conditions -  °F | °C
As of 9:00 PM on Tuesday 25 Nov 2014 (Local Time) from CYYT Reporting Station
Few Clouds Few Clouds  
Wind Chill: 50°   Ceiling: Unl
Heat Index: 50°   Visibility: 15mi
Dew Point: 48°   Wind: 30mph
Humidity: 94%   Direction: 260°W
Pressure: 29.7"   Gusts: 39mph
Location:  47.85°N, 53.98°W
Report Text: CYYT 260000Z 26026G34KT 15SM FEW006 10/09 A2970 RMK SF2 SLP058
Loading
Personal Weather Stations






























Interactive Weather Map New forecast layout! Learn more

10-Day Weather Forecast

Advertisements
Track Severe Weather on mobile